Belmar, New Jersey
Current Conditions -  °F | °C
As of 11:15 AM on Tuesday 21 Oct 2014 (Local Time) from KBLM Reporting Station
Overcast Overcast  
Wind Chill: 64°   Ceiling: 6500
Heat Index: 64°   Visibility: 10mi
Dew Point: 50°   Wind: 7mph
Humidity: 59%   Direction: 150°SSE
Pressure: 29.87"   Gusts: NA
Location:  40.18°N, 74.02°W
Report Text: KBLM 211515Z AUTO 15006KT 10SM FEW034 BKN065 OVC095 18/10 A2987 RMK AO1
Loading
Personal Weather Stations






























Interactive Weather Map
Tropical Storm Tracking
New forecast layout! Learn more

10-Day Weather Forecast

Advertisements
Track Severe Weather on mobile